Time;durP1;ratioP1;P1;durP2;ratioP2;P2;SDS_P1;SDS_P2;PMS_P1;PMS_P2;Temp;Humidity;BMP_temperature;BMP_pressure;BME280_temperature;BME280_humidity;BME280_pressure;Samples;Min_cycle;Max_cycle;Signal;HPM_P1;HPM_P2
2022/02/18 00:01:01;;;;;;;13.27;3.97;;;12.00;99.90;;;;;;5095434;28;20030;-72
2022/02/18 00:03:27;;;;;;;10.48;2.28;;;12.00;99.90;;;;;;5094959;28;20052;-70
2022/02/18 00:05:53;;;;;;;10.00;2.72;;;12.00;99.90;;;;;;5095381;28;20497;-71
2022/02/18 00:08:20;;;;;;;16.88;3.45;;;12.00;99.90;;;;;;5095024;28;20028;-71
2022/02/18 00:10:46;;;;;;;10.93;2.47;;;12.00;99.90;;;;;;5095281;28;20447;-71
2022/02/18 00:13:13;;;;;;;11.80;2.50;;;11.90;99.90;;;;;;5094890;28;20024;-72
2022/02/18 00:15:39;;;;;;;9.15;2.60;;;12.00;99.90;;;;;;5095130;28;20016;-72
2022/02/18 00:18:05;;;;;;;12.82;2.05;;;12.00;99.90;;;;;;5094887;28;20012;-69
2022/02/18 00:20:34;;;;;;;7.93;2.05;;;12.00;99.90;;;;;;5095018;28;20432;-69
2022/02/18 00:23:01;;;;;;;12.50;2.50;;;12.00;99.90;;;;;;5094756;28;20103;-70
2022/02/18 00:25:27;;;;;;;14.55;2.58;;;12.00;99.90;;;;;;5094725;28;20103;-70
2022/02/18 00:27:52;;;;;;;10.50;2.20;;;11.90;99.90;;;;;;5094648;28;20024;-69
2022/02/18 00:30:19;;;;;;;9.93;1.80;;;12.00;99.90;;;;;;5094619;28;20038;-71
2022/02/18 00:32:45;;;;;;;7.70;2.00;;;11.90;99.90;;;;;;5094525;28;20478;-70
2022/02/18 00:35:11;;;;;;;3.80;1.17;;;11.90;99.90;;;;;;5094528;28;20051;-71
2022/02/18 00:37:37;;;;;;;6.65;1.80;;;11.80;99.90;;;;;;5094477;28;20095;-69
2022/02/18 00:40:04;;;;;;;6.97;1.70;;;11.90;99.90;;;;;;5094694;28;20055;-70
2022/02/18 00:42:30;;;;;;;6.15;1.58;;;11.90;99.90;;;;;;5094970;28;20063;-73
2022/02/18 00:44:56;;;;;;;4.93;1.85;;;11.80;99.90;;;;;;5094379;28;20028;-70
2022/02/18 00:47:21;;;;;;;2.42;1.70;;;11.80;99.90;;;;;;5093044;28;20107;-71
2022/02/18 00:49:47;;;;;;;5.70;1.65;;;11.80;99.90;;;;;;5093007;28;20040;-72
2022/02/18 00:52:15;;;;;;;3.90;1.30;;;11.80;99.90;;;;;;5094140;28;20016;-72
2022/02/18 00:54:41;;;;;;;3.70;1.20;;;11.80;99.90;;;;;;5094107;28;20065;-70
2022/02/18 00:57:07;;;;;;;4.28;1.33;;;11.80;99.90;;;;;;5094713;28;20108;-70
2022/02/18 00:59:33;;;;;;;4.15;1.10;;;11.80;99.90;;;;;;5094039;28;20020;-70
2022/02/18 01:01:58;;;;;;;4.50;1.65;;;11.80;99.90;;;;;;5094030;28;20055;-71
2022/02/18 01:04:24;;;;;;;5.97;1.20;;;11.90;99.90;;;;;;5093770;28;20521;-70
2022/02/18 01:06:50;;;;;;;3.63;1.08;;;11.80;99.90;;;;;;5093401;28;20028;-71
2022/02/18 01:09:16;;;;;;;4.15;1.25;;;11.80;99.90;;;;;;5093886;28;20035;-74
2022/02/18 01:11:41;;;;;;;4.30;1.05;;;11.80;99.90;;;;;;5094176;28;20028;-69
2022/02/18 01:14:07;;;;;;;4.78;1.23;;;11.80;99.90;;;;;;5093738;28;20116;-71
2022/02/18 01:16:34;;;;;;;3.47;1.40;;;11.70;99.90;;;;;;5093792;28;20588;-71
2022/02/18 01:18:59;;;;;;;3.00;1.50;;;11.70;99.90;;;;;;5093728;28;20016;-70
2022/02/18 01:21:25;;;;;;;7.43;1.58;;;11.70;99.90;;;;;;5093996;28;20027;-70
2022/02/18 01:23:51;;;;;;;5.63;1.52;;;11.70;99.90;;;;;;5093701;28;20027;-69
2022/02/18 01:26:17;;;;;;;4.05;2.05;;;11.80;99.90;;;;;;5093654;28;20035;-70
2022/02/18 01:28:44;;;;;;;5.68;1.60;;;11.80;99.90;;;;;;5093646;28;20130;-71
2022/02/18 01:31:10;;;;;;;6.88;1.73;;;11.80;99.90;;;;;;5092261;28;20165;-71
2022/02/18 01:33:36;;;;;;;4.80;1.90;;;11.80;99.90;;;;;;5093428;28;20055;-73
2022/02/18 01:36:02;;;;;;;4.97;1.70;;;11.80;99.90;;;;;;5093770;28;20520;-71
2022/02/18 01:38:27;;;;;;;6.25;1.65;;;11.80;99.90;;;;;;5094032;28;20378;-70
2022/02/18 01:40:53;;;;;;;8.25;1.63;;;11.80;99.90;;;;;;5093450;28;20028;-71
2022/02/18 01:43:19;;;;;;;6.38;1.88;;;11.80;99.90;;;;;;5093386;28;20027;-69
2022/02/18 01:45:45;;;;;;;7.07;1.98;;;11.70;99.90;;;;;;5093405;28;20449;-71
2022/02/18 01:48:11;;;;;;;3.83;1.35;;;11.80;99.90;;;;;;5093608;28;20424;-71
2022/02/18 01:50:37;;;;;;;2.72;1.27;;;11.80;99.90;;;;;;5093327;28;20039;-71
2022/02/18 01:53:03;;;;;;;4.97;1.27;;;11.80;99.90;;;;;;5093221;28;20020;-72
2022/02/18 01:55:31;;;;;;;4.93;1.52;;;11.90;99.90;;;;;;5093212;28;20024;-70
2022/02/18 01:57:58;;;;;;;2.80;1.30;;;11.80;99.90;;;;;;5093223;28;20066;-68
2022/02/18 02:00:26;;;;;;;7.35;1.30;;;11.80;99.90;;;;;;5093239;28;20367;-71
2022/02/18 02:02:53;;;;;;;5.63;2.08;;;11.90;99.90;;;;;;5093153;28;20028;-72
2022/02/18 02:05:20;;;;;;;6.13;1.90;;;11.90;99.90;;;;;;5092732;28;20498;-72
2022/02/18 02:07:47;;;;;;;13.48;7.72;;;11.90;99.90;;;;;;5093426;28;20024;-70
2022/02/18 02:10:14;;;;;;;12.00;4.80;;;11.90;99.90;;;;;;5093685;28;20034;-72
2022/02/18 02:12:47;;;;;;;22.67;11.30;;;11.90;99.90;;;;;;5093348;28;20042;-71
2022/02/18 02:15:13;;;;;;;19.45;11.23;;;11.90;99.90;;;;;;5093163;28;20027;-70
2022/02/18 02:17:39;;;;;;;28.95;16.92;;;11.80;99.90;;;;;;5093367;28;20382;-73
2022/02/18 02:20:07;;;;;;;32.03;18.77;;;11.80;99.90;;;;;;5095651;28;20020;-72
2022/02/18 02:22:33;;;;;;;12.60;6.57;;;11.80;99.90;;;;;;5097697;28;20020;-71
2022/02/18 02:24:59;;;;;;;19.38;10.20;;;11.80;99.90;;;;;;5097264;28;20035;-71
2022/02/18 02:27:25;;;;;;;27.65;18.27;;;11.80;99.90;;;;;;5097025;28;20070;-71
2022/02/18 02:29:51;;;;;;;16.30;12.32;;;11.80;99.90;;;;;;5096912;28;20503;-70
2022/02/18 02:32:17;;;;;;;9.27;5.90;;;11.80;99.90;;;;;;5097160;28;20051;-71
2022/02/18 02:34:43;;;;;;;6.55;1.75;;;11.80;99.90;;;;;;5097166;28;20020;-72
2022/02/18 02:37:10;;;;;;;5.20;3.10;;;11.90;99.90;;;;;;5096851;28;20024;-72
2022/02/18 02:39:37;;;;;;;15.20;8.95;;;11.90;99.90;;;;;;5097076;28;20016;-71
2022/02/18 02:42:04;;;;;;;2.92;1.30;;;12.00;99.90;;;;;;5096762;28;20056;-70
2022/02/18 02:44:30;;;;;;;14.07;8.40;;;12.00;99.90;;;;;;5096941;28;20111;-71
2022/02/18 02:46:55;;;;;;;8.00;4.68;;;12.00;99.90;;;;;;5097177;28;20063;-70
2022/02/18 02:49:21;;;;;;;7.47;2.83;;;12.00;99.90;;;;;;5097157;28;20069;-71
2022/02/18 02:51:48;;;;;;;15.75;9.15;;;12.00;99.90;;;;;;5096556;28;20024;-71
2022/02/18 02:54:14;;;;;;;6.43;2.65;;;12.00;99.90;;;;;;5096599;28;20016;-71
2022/02/18 02:56:40;;;;;;;7.35;3.92;;;12.00;99.90;;;;;;5095194;28;20375;-70
2022/02/18 02:59:06;;;;;;;4.80;1.20;;;12.00;99.90;;;;;;5096465;28;20103;-71
2022/02/18 03:01:32;;;;;;;10.50;3.13;;;12.00;99.90;;;;;;5096343;28;20382;-70
2022/02/18 03:03:57;;;;;;;6.45;3.50;;;12.10;99.90;;;;;;5096084;28;20044;-71
2022/02/18 03:06:23;;;;;;;4.38;2.15;;;12.00;99.90;;;;;;5096271;28;20035;-69
2022/02/18 03:08:49;;;;;;;9.27;4.78;;;12.00;99.90;;;;;;5096238;28;20106;-71
2022/02/18 03:11:14;;;;;;;7.88;2.97;;;12.00;99.90;;;;;;5096204;28;20027;-72
2022/02/18 03:13:41;;;;;;;9.23;5.00;;;12.00;99.90;;;;;;5096058;28;20020;-75
2022/02/18 03:16:07;;;;;;;11.88;3.65;;;12.00;99.90;;;;;;5096365;28;20024;-73
2022/02/18 03:18:33;;;;;;;10.13;5.45;;;12.00;99.90;;;;;;5096016;28;20031;-72
2022/02/18 03:20:58;;;;;;;11.48;6.03;;;12.00;99.90;;;;;;5095974;28;20043;-74
2022/02/18 03:23:24;;;;;;;11.70;6.38;;;12.00;99.90;;;;;;5096211;28;20058;-72
2022/02/18 03:25:50;;;;;;;9.15;4.97;;;12.00;99.90;;;;;;5095887;28;20508;-72
2022/02/18 03:28:15;;;;;;;8.70;2.38;;;12.00;99.90;;;;;;5096151;28;20137;-72
2022/02/18 03:30:41;;;;;;;11.43;3.20;;;11.90;99.90;;;;;;5095209;28;20100;-71
2022/02/18 03:33:08;;;;;;;10.05;2.55;;;11.90;99.90;;;;;;5095625;28;20028;-71
2022/02/18 03:35:34;;;;;;;9.20;3.10;;;11.80;99.90;;;;;;5095706;28;20012;-76
2022/02/18 03:38:00;;;;;;;10.38;3.05;;;11.90;99.90;;;;;;5096223;28;20066;-73
2022/02/18 03:40:26;;;;;;;7.00;1.88;;;11.80;99.90;;;;;;5095654;28;20028;-76
2022/02/18 03:42:51;;;;;;;8.05;1.80;;;11.80;99.90;;;;;;5095547;28;20024;-73
2022/02/18 03:45:17;;;;;;;11.75;6.25;;;11.80;99.90;;;;;;5095814;28;20045;-75
2022/02/18 03:47:43;;;;;;;7.75;2.05;;;11.80;99.90;;;;;;5095467;28;20047;-76
2022/02/18 03:50:08;;;;;;;8.50;3.25;;;11.70;99.90;;;;;;5095431;28;20035;-78
2022/02/18 03:52:34;;;;;;;6.88;2.33;;;11.70;99.90;;;;;;5095574;28;20076;-76
2022/02/18 03:55:00;;;;;;;7.88;3.50;;;11.70;99.90;;;;;;5095241;28;20052;-75
2022/02/18 03:57:25;;;;;;;9.65;2.55;;;11.70;99.90;;;;;;5095290;28;20545;-73
2022/02/18 03:59:51;;;;;;;10.18;2.20;;;11.60;99.90;;;;;;5095218;28;20028;-74
2022/02/18 04:02:17;;;;;;;9.98;2.92;;;11.60;99.90;;;;;;5095190;28;20125;-72
2022/02/18 04:04:42;;;;;;;6.85;3.58;;;11.60;99.90;;;;;;5094938;28;20040;-73
2022/02/18 04:07:11;;;;;;;7.80;1.60;;;11.60;99.90;;;;;;5095065;28;20081;-73
2022/02/18 04:09:37;;;;;;;9.02;2.90;;;11.60;99.90;;;;;;5095295;28;20020;-73
2022/02/18 04:12:03;;;;;;;8.20;2.20;;;11.60;99.90;;;;;;5095253;28;20020;-75
2022/02/18 04:14:29;;;;;;;7.40;1.98;;;11.60;99.90;;;;;;5094863;28;20111;-76
2022/02/18 04:16:54;;;;;;;6.10;2.17;;;11.60;99.90;;;;;;5094951;28;20095;-73
2022/02/18 04:19:20;;;;;;;9.48;3.40;;;11.60;99.90;;;;;;5094913;28;20401;-73
2022/02/18 04:21:46;;;;;;;7.93;1.85;;;11.70;99.90;;;;;;5094854;28;20541;-76
2022/02/18 04:24:12;;;;;;;6.97;2.10;;;11.70;99.90;;;;;;5094827;28;20032;-75
2022/02/18 04:26:37;;;;;;;4.63;1.42;;;11.70;99.90;;;;;;5094740;28;20486;-76
2022/02/18 04:29:03;;;;;;;10.68;3.33;;;11.80;99.90;;;;;;5094673;28;20024;-73
2022/02/18 04:31:29;;;;;;;4.63;2.20;;;11.80;99.90;;;;;;5094615;28;20028;-76
2022/02/18 04:33:54;;;;;;;5.97;2.30;;;11.80;99.90;;;;;;5094788;28;20061;-75
2022/02/18 04:36:20;;;;;;;4.95;2.00;;;11.80;99.90;;;;;;5094792;28;20370;-75
2022/02/18 04:38:46;;;;;;;12.45;2.63;;;11.80;99.90;;;;;;5094490;28;20055;-73
2022/02/18 04:41:11;;;;;;;8.23;1.80;;;11.80;99.90;;;;;;5094597;28;20020;-75
2022/02/18 04:43:37;;;;;;;5.28;1.83;;;11.70;99.90;;;;;;5093889;28;20028;-74
2022/02/18 04:46:03;;;;;;;9.57;2.00;;;11.70;99.90;;;;;;5094371;28;20391;-74
2022/02/18 04:48:29;;;;;;;5.13;1.65;;;11.70;99.90;;;;;;5094313;28;20103;-73
2022/02/18 04:50:54;;;;;;;8.40;3.50;;;11.70;99.90;;;;;;5094331;28;20062;-77
2022/02/18 04:53:20;;;;;;;11.15;2.53;;;11.70;99.90;;;;;;5094193;28;20034;-73
2022/02/18 04:55:46;;;;;;;8.35;2.47;;;11.70;99.90;;;;;;5094168;28;20016;-73
2022/02/18 04:58:11;;;;;;;8.55;1.90;;;11.70;99.90;;;;;;5094100;28;20020;-73
2022/02/18 05:00:37;;;;;;;9.40;2.33;;;11.80;99.90;;;;;;5094063;28;20079;-73
2022/02/18 05:03:03;;;;;;;10.82;2.88;;;11.80;99.90;;;;;;5094037;28;20027;-73
2022/02/18 05:05:28;;;;;;;8.00;2.17;;;11.80;99.90;;;;;;5092547;28;20096;-74
2022/02/18 05:07:54;;;;;;;7.03;1.50;;;11.80;99.90;;;;;;5093938;28;20069;-75
2022/02/18 05:10:19;;;;;;;12.40;2.00;;;11.90;99.90;;;;;;5093879;28;20028;-73
2022/02/18 05:12:45;;;;;;;14.77;2.20;;;11.80;99.90;;;;;;5093775;28;20028;-73
2022/02/18 05:15:11;;;;;;;7.97;1.80;;;11.90;99.90;;;;;;5093830;28;20073;-73
2022/02/18 05:17:36;;;;;;;8.85;2.20;;;12.00;99.90;;;;;;5094088;28;20082;-74
2022/02/18 05:20:03;;;;;;;9.80;1.85;;;11.90;99.90;;;;;;5093990;28;20020;-73
2022/02/18 05:22:28;;;;;;;12.55;2.20;;;11.90;99.90;;;;;;5093688;28;20547;-74
2022/02/18 05:24:54;;;;;;;10.57;2.30;;;11.80;99.90;;;;;;5093654;28;20016;-73
2022/02/18 05:27:20;;;;;;;13.07;2.22;;;11.80;99.90;;;;;;5093657;28;20518;-73
2022/02/18 05:29:45;;;;;;;5.55;1.90;;;11.80;99.90;;;;;;5093589;28;20386;-74
2022/02/18 05:32:11;;;;;;;7.50;2.10;;;11.80;99.90;;;;;;5093551;28;20501;-74
2022/02/18 05:34:37;;;;;;;10.48;2.13;;;11.80;99.90;;;;;;5093429;28;20493;-73
2022/02/18 05:37:04;;;;;;;12.68;1.45;;;11.80;99.90;;;;;;5092210;28;20028;-73
2022/02/18 05:39:29;;;;;;;7.80;1.55;;;11.80;99.90;;;;;;5092179;28;20431;-73
2022/02/18 05:41:55;;;;;;;8.65;1.63;;;11.80;99.90;;;;;;5093424;28;20052;-73
2022/02/18 05:44:21;;;;;;;8.20;1.90;;;11.80;99.90;;;;;;5093379;28;20059;-74
2022/02/18 05:46:47;;;;;;;6.22;1.70;;;11.80;99.90;;;;;;5093414;28;20028;-73
2022/02/18 05:49:13;;;;;;;4.15;1.10;;;11.80;99.90;;;;;;5093649;28;20047;-74
2022/02/18 05:51:39;;;;;;;7.13;1.63;;;11.80;99.90;;;;;;5093289;28;20509;-73
2022/02/18 05:54:05;;;;;;;5.00;1.13;;;11.80;99.90;;;;;;5093159;28;20024;-74
2022/02/18 05:56:30;;;;;;;3.20;1.13;;;11.80;99.90;;;;;;5091918;28;20059;-73
2022/02/18 05:58:56;;;;;;;5.32;1.33;;;11.80;99.90;;;;;;5093208;28;20016;-73
2022/02/18 06:01:22;;;;;;;4.85;1.23;;;11.80;99.90;;;;;;5093198;28;20493;-73
2022/02/18 06:03:48;;;;;;;5.63;0.95;;;11.80;99.90;;;;;;5092993;28;20189;-74
2022/02/18 06:06:15;;;;;;;6.25;1.10;;;11.80;99.90;;;;;;5093764;28;20066;-74
2022/02/18 06:08:40;;;;;;;4.68;1.90;;;11.80;99.90;;;;;;5093427;28;20120;-73
2022/02/18 06:11:06;;;;;;;6.13;1.40;;;11.70;99.90;;;;;;5093119;28;20056;-75
2022/02/18 06:13:31;;;;;;;4.47;1.90;;;11.80;99.90;;;;;;5093364;28;20047;-73
2022/02/18 06:15:57;;;;;;;5.13;1.92;;;11.80;99.90;;;;;;5093392;28;20402;-75
2022/02/18 06:18:23;;;;;;;11.02;3.25;;;11.80;99.90;;;;;;5093113;28;20470;-73
2022/02/18 06:20:49;;;;;;;4.65;1.67;;;11.80;99.90;;;;;;5093324;28;20024;-74
2022/02/18 06:23:14;;;;;;;8.80;3.03;;;11.80;99.90;;;;;;5093051;28;20032;-73
2022/02/18 06:25:40;;;;;;;11.65;2.40;;;11.80;99.90;;;;;;5092998;28;20481;-76
2022/02/18 06:28:16;;;;;;;10.80;2.72;;;11.90;99.90;;;;;;5093036;28;20058;-74
2022/02/18 06:30:41;;;;;;;16.35;5.68;;;11.90;99.90;;;;;;5093282;28;20054;-74
2022/02/18 06:33:08;;;;;;;12.10;4.18;;;11.80;99.90;;;;;;5092910;28;20028;-73
2022/02/18 06:35:34;;;;;;;26.35;10.50;;;11.80;99.90;;;;;;5092920;28;20016;-73
2022/02/18 06:38:00;;;;;;;6.25;2.13;;;11.80;99.90;;;;;;5092900;28;20019;-74
2022/02/18 06:40:26;;;;;;;8.73;2.95;;;11.80;99.90;;;;;;5093164;28;20390;-75
2022/02/18 06:42:52;;;;;;;8.50;2.53;;;11.80;99.90;;;;;;5092903;28;20114;-74
2022/02/18 06:45:18;;;;;;;19.65;9.23;;;11.70;99.90;;;;;;5092873;28;20103;-74
2022/02/18 06:47:47;;;;;;;5.38;2.50;;;11.70;99.90;;;;;;5092850;28;20049;-75
2022/02/18 06:50:15;;;;;;;12.05;4.38;;;11.70;99.90;;;;;;5093127;28;20020;-74
2022/02/18 06:52:41;;;;;;;8.48;3.35;;;11.70;99.90;;;;;;5092686;28;20165;-75
2022/02/18 06:55:07;;;;;;;6.20;2.28;;;11.70;99.90;;;;;;5092687;28;20484;-73
2022/02/18 06:57:38;;;;;;;10.05;4.65;;;11.80;99.90;;;;;;5092700;28;20099;-74
2022/02/18 07:00:04;;;;;;;8.63;2.60;;;11.80;99.90;;;;;;5093318;28;20031;-74
2022/02/18 07:02:29;;;;;;;4.72;2.42;;;11.80;99.90;;;;;;5093186;28;20029;-74
2022/02/18 07:04:55;;;;;;;8.07;3.75;;;11.80;99.90;;;;;;5092454;28;20044;-73
2022/02/18 07:07:20;;;;;;;4.30;1.88;;;11.80;99.90;;;;;;5096296;28;20027;-75
2022/02/18 07:09:46;;;;;;;3.97;1.60;;;11.80;99.90;;;;;;5096241;28;20073;-74
2022/02/18 07:12:12;;;;;;;5.13;1.58;;;11.80;99.90;;;;;;5096741;28;20467;-75
2022/02/18 07:14:37;;;;;;;8.82;5.82;;;11.80;99.90;;;;;;5096339;28;20032;-75
2022/02/18 07:17:04;;;;;;;7.20;3.00;;;11.80;99.90;;;;;;5096051;28;20017;-75
2022/02/18 07:19:30;;;;;;;6.30;2.00;;;11.80;99.90;;;;;;5096026;28;20024;-75
2022/02/18 07:21:56;;;;;;;5.10;2.20;;;11.80;99.90;;;;;;5096011;28;20020;-73
2022/02/18 07:24:22;;;;;;;5.07;1.20;;;11.80;99.90;;;;;;5096208;28;20103;-76
2022/02/18 07:26:47;;;;;;;3.88;2.20;;;11.80;99.90;;;;;;5096146;28;20059;-75
2022/02/18 07:29:13;;;;;;;4.10;2.25;;;11.80;99.90;;;;;;5095816;28;20440;-74
2022/02/18 07:31:39;;;;;;;5.80;1.85;;;11.80;99.90;;;;;;5095828;28;20027;-75
2022/02/18 07:34:04;;;;;;;3.90;1.30;;;11.80;99.90;;;;;;5095631;28;20477;-74
2022/02/18 07:36:30;;;;;;;8.27;1.27;;;11.70;99.90;;;;;;5095999;28;20056;-73
2022/02/18 07:38:56;;;;;;;9.00;1.52;;;11.30;99.90;;;;;;5095948;28;20103;-73
2022/02/18 07:41:21;;;;;;;5.35;1.45;;;11.00;99.90;;;;;;5095877;28;20042;-76
2022/02/18 07:43:47;;;;;;;4.13;1.33;;;10.90;99.90;;;;;;5095376;28;20032;-76
2022/02/18 07:46:13;;;;;;;7.90;1.70;;;10.80;99.90;;;;;;5095866;28;20028;-74
2022/02/18 07:48:38;;;;;;;5.45;1.05;;;10.60;99.90;;;;;;5095429;28;20543;-75
2022/02/18 07:51:06;;;;;;;9.38;1.98;;;10.60;99.90;;;;;;5096253;28;20424;-75
2022/02/18 07:53:32;;;;;;;9.23;2.35;;;10.50;99.90;;;;;;5095295;28;20024;-77
2022/02/18 07:55:58;;;;;;;11.25;3.15;;;10.50;99.90;;;;;;5095272;28;20073;-74
2022/02/18 07:58:23;;;;;;;12.68;2.45;;;10.50;99.90;;;;;;5095548;28;20409;-74
2022/02/18 08:00:51;;;;;;;9.02;2.17;;;10.60;99.90;;;;;;5095424;28;20027;-77
2022/02/18 08:03:16;;;;;;;11.80;2.40;;;10.60;99.90;;;;;;5095245;28;20474;-74
2022/02/18 08:05:42;;;;;;;11.50;2.97;;;10.60;99.90;;;;;;5095496;28;20039;-77
2022/02/18 08:08:08;;;;;;;10.02;2.65;;;10.60;99.90;;;;;;5095428;28;20028;-74
2022/02/18 08:10:34;;;;;;;12.05;3.28;;;10.60;99.90;;;;;;5095078;28;20037;-75
2022/02/18 08:12:59;;;;;;;9.15;2.17;;;10.60;99.90;;;;;;5095242;28;20482;-75
2022/02/18 08:15:25;;;;;;;10.27;2.92;;;10.60;99.90;;;;;;5093700;28;20482;-75
2022/02/18 08:17:51;;;;;;;10.32;2.70;;;10.70;99.90;;;;;;5095094;28;20020;-76
2022/02/18 08:20:16;;;;;;;8.35;2.08;;;10.80;99.90;;;;;;5095153;28;20156;-75
2022/02/18 08:22:43;;;;;;;10.55;2.00;;;11.20;99.90;;;;;;5095122;28;20494;-77
2022/02/18 08:25:10;;;;;;;7.53;2.40;;;11.70;99.90;;;;;;5094784;28;20089;-74
2022/02/18 08:27:36;;;;;;;8.88;2.40;;;12.40;99.90;;;;;;5095000;28;20032;-75
2022/02/18 08:30:04;;;;;;;11.77;2.58;;;13.00;99.90;;;;;;5095236;28;20023;-75
2022/02/18 08:32:29;;;;;;;9.98;2.40;;;13.20;99.90;;;;;;5094449;28;20034;-75
2022/02/18 08:34:55;;;;;;;10.15;2.70;;;13.20;99.90;;;;;;5094893;28;20094;-74
2022/02/18 08:37:21;;;;;;;10.77;2.42;;;12.80;99.90;;;;;;5094083;28;20104;-74
2022/02/18 08:39:47;;;;;;;20.05;3.40;;;12.40;99.90;;;;;;5094457;28;20099;-75
2022/02/18 08:42:12;;;;;;;18.10;4.38;;;12.30;99.90;;;;;;5094407;28;20024;-72
2022/02/18 08:44:39;;;;;;;14.25;3.60;;;11.90;99.90;;;;;;5094501;28;20393;-73
2022/02/18 08:47:05;;;;;;;16.33;3.30;;;11.60;99.90;;;;;;5095045;28;20039;-73
2022/02/18 08:49:30;;;;;;;14.63;3.33;;;11.40;99.90;;;;;;5095402;28;20027;-73
2022/02/18 08:51:56;;;;;;;13.00;3.28;;;11.30;99.90;;;;;;5095469;28;20028;-75
2022/02/18 08:54:22;;;;;;;20.08;3.72;;;11.30;99.90;;;;;;5095904;28;20020;-75
2022/02/18 08:56:49;;;;;;;20.08;3.45;;;11.30;99.90;;;;;;5095528;28;20034;-73
2022/02/18 08:59:15;;;;;;;19.77;3.72;;;11.20;99.90;;;;;;5094954;28;20028;-74
2022/02/18 09:01:40;;;;;;;20.73;5.25;;;11.30;99.90;;;;;;5093913;28;20119;-75
2022/02/18 09:04:06;;;;;;;19.88;4.22;;;11.30;99.90;;;;;;5094555;28;20044;-73
2022/02/18 09:06:32;;;;;;;20.35;6.15;;;11.40;99.90;;;;;;5094915;28;20028;-74
2022/02/18 09:08:58;;;;;;;22.20;4.57;;;11.30;99.90;;;;;;5094575;28;20101;-73
2022/02/18 09:11:23;;;;;;;19.52;4.32;;;11.30;99.90;;;;;;5093977;28;20022;-75
2022/02/18 09:13:49;;;;;;;19.80;4.32;;;11.30;99.90;;;;;;5093806;28;20024;-76
2022/02/18 09:16:16;;;;;;;18.45;3.63;;;11.40;99.90;;;;;;5093821;28;20028;-74
2022/02/18 09:18:41;;;;;;;16.95;3.25;;;11.30;99.90;;;;;;5094023;28;20050;-75
2022/02/18 09:21:08;;;;;;;17.83;3.75;;;11.20;99.90;;;;;;5093796;28;20099;-75
2022/02/18 09:23:34;;;;;;;19.30;7.07;;;11.10;99.90;;;;;;5093711;28;20436;-76
2022/02/18 09:26:00;;;;;;;15.73;3.70;;;11.10;99.90;;;;;;5092396;28;20070;-75
2022/02/18 09:28:28;;;;;;;22.73;4.38;;;11.10;99.90;;;;;;5093694;28;20099;-73
2022/02/18 09:30:55;;;;;;;20.48;4.70;;;11.10;99.90;;;;;;5093856;28;20020;-75
2022/02/18 09:33:22;;;;;;;24.02;4.47;;;11.20;99.90;;;;;;5092180;28;20032;-75
2022/02/18 09:35:47;;;;;;;22.75;4.13;;;11.20;99.90;;;;;;5093508;28;20462;-74
2022/02/18 09:38:13;;;;;;;19.38;4.28;;;11.20;99.90;;;;;;5093663;28;20153;-75
2022/02/18 09:40:40;;;;;;;19.02;3.97;;;11.40;99.90;;;;;;5093396;28;20023;-76
2022/02/18 09:43:06;;;;;;;17.70;3.88;;;11.40;99.90;;;;;;5093695;28;20043;-76
2022/02/18 09:45:32;;;;;;;20.65;4.63;;;11.40;99.90;;;;;;5093702;28;20024;-75
2022/02/18 09:47:58;;;;;;;24.00;4.88;;;11.50;99.90;;;;;;5094141;28;20514;-77
2022/02/18 09:50:25;;;;;;;21.40;4.63;;;11.60;99.90;;;;;;5093346;28;20389;-76
2022/02/18 09:52:51;;;;;;;20.88;5.25;;;11.80;99.90;;;;;;5093243;28;20032;-75
2022/02/18 09:55:16;;;;;;;23.02;3.97;;;12.20;99.90;;;;;;5093193;28;20018;-76
2022/02/18 09:57:43;;;;;;;15.40;3.50;;;12.40;99.90;;;;;;5091950;28;20024;-78
2022/02/18 10:00:10;;;;;;;20.80;5.63;;;12.90;99.90;;;;;;5093278;28;20078;-77
2022/02/18 10:02:37;;;;;;;23.65;4.00;;;12.90;99.90;;;;;;5093537;28;20436;-78
2022/02/18 10:05:04;;;;;;;21.50;4.88;;;12.90;99.90;;;;;;5093055;28;20040;-76
2022/02/18 10:07:34;;;;;;;18.45;4.75;;;12.80;99.90;;;;;;5093469;28;20024;-75
2022/02/18 10:10:12;;;;;;;16.80;4.53;;;12.80;99.90;;;;;;5093465;28;20031;-76
2022/02/18 10:12:39;;;;;;;14.57;4.43;;;13.20;99.90;;;;;;5093400;28;20624;-75
2022/02/18 10:15:12;;;;;;;15.25;3.22;;;13.60;99.90;;;;;;5093174;28;20478;-75
2022/02/18 10:17:43;;;;;;;14.73;3.45;;;13.50;99.90;;;;;;5093453;28;20024;-73
2022/02/18 10:20:23;;;;;;;20.15;4.25;;;13.80;99.90;;;;;;5093117;28;20016;-75
2022/02/18 10:22:59;;;;;;;18.27;3.10;;;14.10;99.90;;;;;;5093348;28;20099;-75
2022/02/18 10:25:31;;;;;;;20.67;3.75;;;13.90;99.90;;;;;;5093620;28;20031;-76
2022/02/18 10:27:57;;;;;;;13.38;3.42;;;13.50;99.90;;;;;;5093276;28;20032;-76
2022/02/18 10:30:28;;;;;;;17.00;3.50;;;13.20;99.90;;;;;;5091735;28;20115;-77
2022/02/18 10:32:55;;;;;;;18.85;4.38;;;13.10;99.90;;;;;;5093204;28;20030;-74
2022/02/18 10:35:32;;;;;;;15.27;3.63;;;12.90;99.90;;;;;;5092865;28;20486;-73
2022/02/18 10:37:58;;;;;;;16.67;3.67;;;12.80;99.90;;;;;;5092941;28;20073;-73
2022/02/18 10:40:23;;;;;;;13.80;3.53;;;12.90;99.90;;;;;;5092353;28;20023;-76
2022/02/18 10:42:54;;;;;;;16.73;3.90;;;12.70;99.90;;;;;;5096768;28;20024;-73
2022/02/18 10:45:28;;;;;;;16.25;3.45;;;12.70;99.90;;;;;;5096967;28;20148;-78
2022/02/18 10:48:11;;;;;;;16.60;3.45;;;12.70;99.90;;;;;;5096988;28;20428;-74
2022/02/18 10:50:37;;;;;;;16.92;4.10;;;12.80;99.90;;;;;;5096949;28;20028;-74
2022/02/18 10:53:20;;;;;;;20.92;4.32;;;12.90;99.90;;;;;;5096511;28;20392;-74
2022/02/18 10:55:54;;;;;;;20.40;3.65;;;12.60;99.90;;;;;;5096443;28;20043;-76
2022/02/18 10:58:23;;;;;;;23.45;6.32;;;12.30;99.90;;;;;;5097010;28;20027;-75
2022/02/18 11:01:01;;;;;;;18.48;3.78;;;12.10;99.90;;;;;;5095115;28;20024;-74
2022/02/18 11:03:26;;;;;;;15.73;3.10;;;12.10;99.90;;;;;;5096839;28;20020;-76
2022/02/18 11:05:52;;;;;;;23.67;4.40;;;12.30;99.90;;;;;;5096628;28;20504;-77
2022/02/18 11:08:28;;;;;;;17.02;4.05;;;12.50;99.90;;;;;;5096628;28;20451;-73
2022/02/18 11:10:55;;;;;;;19.40;3.78;;;12.60;99.90;;;;;;5096541;28;20081;-74
2022/02/18 11:13:20;;;;;;;13.32;3.28;;;12.80;99.90;;;;;;5096121;28;20024;-72
2022/02/18 11:15:46;;;;;;;14.93;3.15;;;13.00;99.90;;;;;;5094859;28;20123;-75
2022/02/18 11:18:12;;;;;;;18.02;2.92;;;13.30;99.90;;;;;;5096090;28;20016;-77
2022/02/18 11:20:39;;;;;;;10.82;2.50;;;13.60;99.90;;;;;;5096059;28;20030;-77
2022/02/18 11:23:07;;;;;;;13.15;3.22;;;13.80;99.90;;;;;;5095955;28;20031;-78
2022/02/18 11:25:33;;;;;;;17.17;2.95;;;13.70;99.90;;;;;;5096228;28;20032;-75
2022/02/18 11:28:01;;;;;;;14.77;3.15;;;13.60;99.90;;;;;;5095856;28;20473;-77
2022/02/18 11:30:26;;;;;;;14.18;2.80;;;13.40;99.90;;;;;;5096157;28;20035;-76
2022/02/18 11:33:15;;;;;;;14.07;2.80;;;13.10;99.90;;;;;;5095759;28;20490;-75
2022/02/18 11:35:41;;;;;;;9.90;2.40;;;13.10;99.90;;;;;;5065830;28;20470;-75
2022/02/18 11:38:31;;;;;;;8.00;2.15;;;13.20;99.90;;;;;;5095760;28;20146;-74
2022/02/18 11:41:25;;;;;;;12.57;2.70;;;13.20;99.90;;;;;;5095788;28;20035;-74
2022/02/18 11:43:51;;;;;;;8.85;2.55;;;13.00;99.90;;;;;;5095625;28;20028;-74
2022/02/18 11:46:27;;;;;;;10.10;2.50;;;12.80;99.90;;;;;;5095840;28;20048;-74
2022/02/18 11:48:59;;;;;;;12.32;3.03;;;12.70;99.90;;;;;;5094209;28;20363;-74
2022/02/18 11:51:42;;;;;;;11.73;2.42;;;12.60;99.90;;;;;;5095091;28;20048;-75
2022/02/18 11:54:29;;;;;;;12.93;3.03;;;12.90;99.90;;;;;;5094027;28;20413;-75
2022/02/18 11:57:09;;;;;;;13.27;2.88;;;12.70;99.90;;;;;;5095407;28;20016;-74
2022/02/18 12:00:00;;;;;;;12.95;2.70;;;12.30;99.90;;;;;;5095701;28;20016;-74
2022/02/18 12:02:40;;;;;;;11.23;2.70;;;12.30;99.90;;;;;;5095295;28;20032;-74
2022/02/18 12:05:08;;;;;;;15.85;2.50;;;12.60;99.90;;;;;;5094989;28;20040;-74
2022/02/18 12:07:37;;;;;;;10.93;3.28;;;13.10;99.90;;;;;;5095182;28;20020;-77
2022/02/18 12:10:06;;;;;;;14.68;4.00;;;13.30;99.90;;;;;;5095123;28;20016;-76
2022/02/18 12:12:34;;;;;;;13.18;3.15;;;13.40;99.90;;;;;;5093743;28;20024;-75
2022/02/18 12:15:26;;;;;;;10.88;3.28;;;13.30;99.90;;;;;;5095250;28;20020;-75
2022/02/18 12:18:03;;;;;;;12.98;3.28;;;13.70;99.90;;;;;;5095542;28;20470;-75
2022/02/18 12:20:32;;;;;;;10.18;3.30;;;13.80;99.90;;;;;;5093398;28;20028;-77
2022/02/18 12:23:18;;;;;;;15.48;4.22;;;13.80;99.90;;;;;;5095219;28;20548;-76
2022/02/18 12:25:44;;;;;;;11.20;3.45;;;13.90;99.90;;;;;;5093408;28;20028;-77
2022/02/18 12:28:18;;;;;;;14.77;4.38;;;13.80;99.90;;;;;;5094700;28;20375;-77
2022/02/18 12:30:59;;;;;;;14.27;3.55;;;13.90;99.90;;;;;;5094692;28;20094;-75
2022/02/18 12:33:26;;;;;;;12.00;4.10;;;13.80;99.90;;;;;;5094902;28;20032;-75
2022/02/18 12:35:52;;;;;;;16.58;4.38;;;13.40;99.90;;;;;;5095118;28;20035;-79
2022/02/18 12:38:18;;;;;;;12.00;3.80;;;13.30;99.90;;;;;;5094568;28;20190;-73
2022/02/18 12:40:45;;;;;;;13.45;3.80;;;13.40;99.90;;;;;;5094494;28;20054;-77